Time;durP1;ratioP1;P1;durP2;ratioP2;P2;SDS_P1;SDS_P2;PMS_P1;PMS_P2;Temp;Humidity;BMP_temperature;BMP_pressure;BME280_temperature;BME280_humidity;BME280_pressure;Samples;Min_cycle;Max_cycle;Signal;HPM_P1;HPM_P2
2023/12/25 00:00:04;;;;;;;0.30;0.30;;;;;;;9.19;100.00;99919.53;4979498;28;20034;-75
2023/12/25 00:02:33;;;;;;;0.40;0.40;;;;;;;9.21;100.00;99922.03;5012104;28;20036;-75
2023/12/25 00:04:59;;;;;;;0.40;0.40;;;;;;;9.21;100.00;99919.34;4981333;28;20033;-75
2023/12/25 00:07:28;;;;;;;0.40;0.40;;;;;;;9.23;100.00;99909.25;4983357;28;20040;-75
2023/12/25 00:09:53;;;;;;;0.40;0.40;;;;;;;9.25;100.00;99925.97;4999564;28;20042;-75
2023/12/25 00:12:20;;;;;;;0.40;0.40;;;;;;;9.22;100.00;99919.16;4983300;28;20133;-75
2023/12/25 00:14:46;;;;;;;0.30;0.30;;;;;;;9.25;100.00;99909.88;4983378;28;20033;-75
2023/12/25 00:17:13;;;;;;;0.30;0.30;;;;;;;9.32;100.00;99920.72;5015219;28;20469;-76
2023/12/25 00:19:40;;;;;;;0.40;0.40;;;;;;;9.34;100.00;99915.97;4999343;28;20041;-75
2023/12/25 00:22:06;;;;;;;0.45;0.45;;;;;;;9.36;100.00;99919.31;4999180;28;20042;-75
2023/12/25 00:24:33;;;;;;;0.32;0.32;;;;;;;9.28;100.00;99906.00;4983080;28;20034;-75
2023/12/25 00:26:59;;;;;;;0.45;0.45;;;;;;;9.22;100.00;99911.09;4982329;28;20476;-75
2023/12/25 00:29:26;;;;;;;0.40;0.40;;;;;;;9.19;100.00;99905.28;4982892;28;20096;-75
2023/12/25 00:31:54;;;;;;;0.40;0.40;;;;;;;9.20;100.00;99901.56;4982932;28;20038;-74
2023/12/25 00:34:21;;;;;;;0.40;0.40;;;;;;;9.25;100.00;99908.03;4999123;28;20038;-74
2023/12/25 00:36:47;;;;;;;0.40;0.40;;;;;;;9.12;100.00;99897.13;4982609;28;20057;-74
2023/12/25 00:39:13;;;;;;;0.40;0.40;;;;;;;9.07;100.00;99902.22;4982573;28;20068;-74
2023/12/25 00:41:44;;;;;;;0.35;0.35;;;;;;;8.95;100.00;99901.88;5014874;28;20105;-74
2023/12/25 00:44:10;;;;;;;0.30;0.30;;;;;;;8.95;100.00;99898.38;4982425;28;20137;-74
2023/12/25 00:46:36;;;;;;;0.32;0.32;;;;;;;8.88;100.00;99905.50;4982404;28;20029;-74
2023/12/25 00:49:01;;;;;;;0.40;0.40;;;;;;;8.76;100.00;99911.34;4982724;28;20041;-74
2023/12/25 00:51:27;;;;;;;0.32;0.32;;;;;;;8.69;100.00;99904.22;4982313;28;20061;-74
2023/12/25 00:53:53;;;;;;;0.35;0.35;;;;;;;8.67;100.00;99907.06;4982223;28;20037;-75
2023/12/25 00:56:19;;;;;;;0.40;0.40;;;;;;;8.67;100.00;99901.69;4981870;28;20065;-74
2023/12/25 00:58:45;;;;;;;0.30;0.30;;;;;;;8.72;100.00;99899.31;4982111;28;20061;-75
2023/12/25 01:04:29;;;;;;;0.35;0.35;;;;;;;8.86;100.00;99918.25;4990856;28;20041;-75
2023/12/25 01:07:00;;;;;;;0.30;0.30;;;;;;;8.76;100.00;99935.44;4981712;28;20045;-78
2023/12/25 01:09:25;;;;;;;0.30;0.30;;;;;;;8.65;100.00;99935.06;4982022;28;20050;-75
2023/12/25 01:11:51;;;;;;;0.40;0.40;;;;;;;8.49;100.00;99939.56;4998222;28;20037;-76
2023/12/25 01:14:17;;;;;;;0.40;0.40;;;;;;;8.34;100.00;99934.16;4997724;28;20048;-74
2023/12/25 01:16:43;;;;;;;0.40;0.40;;;;;;;8.21;100.00;99936.63;5013630;28;20033;-74
2023/12/25 01:19:12;;;;;;;0.30;0.30;;;;;;;8.14;100.00;99924.97;4981247;28;20551;-74
2023/12/25 01:21:38;;;;;;;0.43;0.43;;;;;;;8.07;100.00;99922.19;4997983;28;20496;-74
2023/12/25 01:24:09;;;;;;;0.40;0.40;;;;;;;8.05;100.00;99934.09;4997518;28;20025;-73
2023/12/25 01:26:34;;;;;;;0.30;0.30;;;;;;;8.05;100.00;99924.19;4997847;28;20065;-73
2023/12/25 01:29:00;;;;;;;0.30;0.30;;;;;;;8.05;100.00;99923.38;4981429;28;20454;-73
2023/12/25 01:31:35;;;;;;;0.40;0.40;;;;;;;8.02;100.00;99924.56;4981608;28;20496;-73
2023/12/25 01:34:08;;;;;;;0.40;0.40;;;;;;;8.03;100.00;99926.22;4982094;28;20038;-73
2023/12/25 01:36:35;;;;;;;0.40;0.40;;;;;;;8.09;100.00;99914.78;4997387;28;20400;-74
2023/12/25 01:39:02;;;;;;;0.40;0.40;;;;;;;8.15;100.00;99921.28;4997398;28;20034;-73
2023/12/25 01:41:27;;;;;;;0.30;0.30;;;;;;;8.25;100.00;99924.53;4997555;28;20042;-74
2023/12/25 01:43:54;;;;;;;0.40;0.40;;;;;;;8.41;100.00;99926.25;4980925;28;20103;-74
2023/12/25 01:46:20;;;;;;;0.40;0.40;;;;;;;8.46;100.00;99917.66;4981419;28;20033;-74
2023/12/25 01:48:49;;;;;;;0.40;0.40;;;;;;;8.44;100.00;99925.91;4981247;28;20041;-73
2023/12/25 01:51:15;;;;;;;0.40;0.40;;;;;;;8.50;100.00;99914.44;4997519;28;20037;-74
2023/12/25 01:53:41;;;;;;;0.40;0.40;;;;;;;8.53;100.00;99911.41;4981313;28;20524;-74
2023/12/25 01:56:09;;;;;;;0.30;0.30;;;;;;;8.57;100.00;99919.91;4965612;28;20038;-75
2023/12/25 01:58:34;;;;;;;0.40;0.40;;;;;;;8.58;100.00;99924.25;4980888;28;20099;-74
2023/12/25 02:01:00;;;;;;;0.40;0.40;;;;;;;8.57;100.00;99917.22;4981199;28;20540;-74
2023/12/25 02:03:28;;;;;;;0.40;0.40;;;;;;;8.59;100.00;99923.22;4980697;28;20041;-74
2023/12/25 02:05:56;;;;;;;0.40;0.40;;;;;;;8.60;100.00;99908.84;5012934;28;20394;-74
2023/12/25 02:08:23;;;;;;;0.40;0.40;;;;;;;8.61;100.00;99915.84;4996848;28;20049;-73
2023/12/25 02:10:53;;;;;;;9.52;4.43;;;;;;;8.63;100.00;99905.78;4996803;28;20485;-73
2023/12/25 02:13:19;;;;;;;0.40;0.40;;;;;;;8.61;100.00;99905.13;4997163;28;20128;-73
2023/12/25 02:15:45;;;;;;;0.40;0.40;;;;;;;8.65;100.00;99897.53;4996480;28;20109;-73
2023/12/25 02:18:11;;;;;;;0.40;0.40;;;;;;;8.61;100.00;99893.59;4980432;28;20380;-73
2023/12/25 02:20:40;;;;;;;8.80;2.00;;;;;;;8.55;100.00;99895.16;4996812;28;20030;-73
2023/12/25 02:23:08;;;;;;;7.72;1.38;;;;;;;8.47;100.00;99889.88;4996872;28;20038;-73
2023/12/25 02:25:36;;;;;;;4.30;0.85;;;;;;;8.42;100.00;99886.91;4980512;28;20051;-73
2023/12/25 02:28:03;;;;;;;17.38;2.55;;;;;;;8.47;100.00;99881.84;4980270;28;20072;-73
2023/12/25 02:30:29;;;;;;;5.15;1.35;;;;;;;8.46;100.00;99888.19;4980717;28;20026;-73
2023/12/25 02:33:04;;;;;;;1.08;0.80;;;;;;;8.52;100.00;99890.13;4980321;28;20101;-73
2023/12/25 02:35:32;;;;;;;6.80;0.82;;;;;;;8.51;100.00;99888.50;4996898;28;20033;-73
2023/12/25 02:38:01;;;;;;;11.70;1.50;;;;;;;8.51;100.00;99893.84;4980461;28;20037;-73
2023/12/25 02:40:27;;;;;;;0.77;0.45;;;;;;;8.49;100.00;99885.16;4980478;28;20045;-73
2023/12/25 02:42:52;;;;;;;7.38;1.50;;;;;;;8.53;100.00;99892.66;4996441;28;20468;-73
2023/12/25 02:45:18;;;;;;;6.22;1.02;;;;;;;8.56;100.00;99896.81;4980663;28;20122;-73
2023/12/25 02:47:44;;;;;;;2.97;1.48;;;;;;;8.58;100.00;99900.97;4980370;28;20033;-73
2023/12/25 02:50:12;;;;;;;10.48;1.90;;;;;;;8.59;100.00;99902.63;4996220;28;20080;-73
2023/12/25 02:52:39;;;;;;;13.60;1.08;;;;;;;8.61;100.00;99918.53;4980279;28;20038;-73
2023/12/25 02:55:05;;;;;;;9.43;2.00;;;;;;;8.65;100.00;99913.63;4995815;28;20385;-73
2023/12/25 02:57:30;;;;;;;0.50;0.50;;;;;;;8.63;100.00;99915.69;4980230;28;20075;-73
2023/12/25 02:59:56;;;;;;;2.17;0.80;;;;;;;8.64;100.00;99930.72;4979965;28;20029;-75
2023/12/25 03:02:22;;;;;;;4.03;1.73;;;;;;;8.69;100.00;99931.00;4979906;28;20080;-73
2023/12/25 03:04:48;;;;;;;8.88;1.60;;;;;;;8.70;100.00;99920.09;4980080;28;20091;-75
2023/12/25 03:07:14;;;;;;;9.65;1.45;;;;;;;8.70;100.00;99917.41;4980178;28;20042;-75
2023/12/25 03:09:41;;;;;;;5.40;0.88;;;;;;;8.75;100.00;99919.53;4980329;28;20465;-75
2023/12/25 03:12:07;;;;;;;7.30;1.77;;;;;;;8.75;100.00;99920.38;4979976;28;20076;-74
2023/12/25 03:14:33;;;;;;;5.93;1.27;;;;;;;8.74;100.00;99921.41;4996090;28;20046;-74
2023/12/25 03:16:59;;;;;;;6.55;1.20;;;;;;;8.72;100.00;99914.56;5012194;28;20157;-75
2023/12/25 03:19:24;;;;;;;2.03;1.00;;;;;;;8.70;100.00;99912.03;4980195;28;20481;-74
2023/12/25 03:21:53;;;;;;;8.70;1.23;;;;;;;8.70;100.00;99914.72;4979797;28;20066;-74
2023/12/25 03:24:19;;;;;;;4.80;1.33;;;;;;;8.68;100.00;99907.88;4995363;28;20030;-74
2023/12/25 03:26:49;;;;;;;0.65;0.65;;;;;;;8.70;100.00;99912.03;5011853;28;20030;-74
2023/12/25 03:29:15;;;;;;;3.85;1.75;;;;;;;8.68;100.00;99916.78;4979999;28;20034;-75
2023/12/25 03:31:44;;;;;;;2.78;1.08;;;;;;;8.62;100.00;99922.03;4979643;28;20607;-74
2023/12/25 03:34:15;;;;;;;4.25;0.80;;;;;;;8.52;100.00;99908.88;4995672;28;20036;-74
2023/12/25 03:36:42;;;;;;;7.88;1.90;;;;;;;8.55;100.00;99913.91;4980374;28;20037;-75
2023/12/25 03:39:10;;;;;;;14.75;2.63;;;;;;;8.50;100.00;99921.66;4979870;28;20054;-74
2023/12/25 03:41:43;;;;;;;8.68;1.42;;;;;;;8.45;100.00;99924.06;5000664;28;20037;-75
2023/12/25 03:44:12;;;;;;;11.25;2.25;;;;;;;8.42;100.00;99935.97;5015178;28;20033;-74
2023/12/25 03:46:44;;;;;;;2.25;1.23;;;;;;;8.36;100.00;99918.75;4999336;28;20026;-74
2023/12/25 03:49:10;;;;;;;12.95;2.25;;;;;;;8.37;100.00;99923.06;4983514;28;20091;-75
2023/12/25 03:51:36;;;;;;;8.82;1.50;;;;;;;8.31;100.00;99917.63;4983456;28;20038;-75
2023/12/25 03:54:02;;;;;;;6.15;1.40;;;;;;;8.33;100.00;99911.06;4983573;28;20030;-74
2023/12/25 03:56:30;;;;;;;7.75;1.23;;;;;;;8.36;100.00;99910.72;4999726;28;20034;-74
2023/12/25 03:58:56;;;;;;;4.32;0.95;;;;;;;8.41;100.00;99901.31;4983263;28;20038;-74
2023/12/25 04:01:22;;;;;;;12.48;1.90;;;;;;;8.47;100.00;99900.59;4982802;28;20030;-74
2023/12/25 04:03:47;;;;;;;5.13;1.00;;;;;;;8.53;100.00;99907.91;4983082;28;20073;-74
2023/12/25 04:06:27;;;;;;;0.80;0.70;;;;;;;8.57;100.00;99899.31;4999389;28;20421;-74
2023/12/25 04:08:52;;;;;;;3.97;1.15;;;;;;;8.58;100.00;99908.19;4999400;28;20041;-74
2023/12/25 04:11:22;;;;;;;5.20;1.65;;;;;;;8.55;100.00;99901.34;4983153;28;20030;-74
2023/12/25 04:13:51;;;;;;;3.97;1.60;;;;;;;8.59;100.00;99904.47;4966835;28;20041;-74
2023/12/25 04:16:21;;;;;;;4.13;0.90;;;;;;;8.61;100.00;99901.63;4983005;28;20038;-74
2023/12/25 04:18:52;;;;;;;7.60;1.70;;;;;;;8.58;100.00;99900.97;4998987;28;20030;-75
2023/12/25 04:21:33;;;;;;;8.02;1.50;;;;;;;8.60;100.00;99903.47;5015113;28;20111;-74
2023/12/25 04:24:01;;;;;;;1.98;0.95;;;;;;;8.62;100.00;99909.47;4982476;28;20034;-74
2023/12/25 04:26:32;;;;;;;5.60;1.13;;;;;;;8.59;100.00;99910.66;4982820;28;20030;-74
2023/12/25 04:28:58;;;;;;;0.98;0.88;;;;;;;8.59;100.00;99926.72;4982731;28;20072;-74
2023/12/25 04:31:23;;;;;;;6.80;1.67;;;;;;;8.63;100.00;99913.81;4982623;28;20112;-74
2023/12/25 04:33:49;;;;;;;6.97;1.63;;;;;;;8.56;100.00;99903.00;4982797;28;20375;-74
2023/12/25 04:36:15;;;;;;;7.68;1.42;;;;;;;8.58;100.00;99903.66;4982752;28;20034;-75
2023/12/25 04:38:40;;;;;;;7.57;1.75;;;;;;;8.57;100.00;99901.13;4982786;28;20030;-74
2023/12/25 04:41:07;;;;;;;9.43;1.55;;;;;;;8.54;100.00;99902.34;4982337;28;20046;-74
2023/12/25 04:43:32;;;;;;;11.10;1.58;;;;;;;8.55;100.00;99916.59;4998627;28;20116;-74
2023/12/25 04:45:58;;;;;;;14.25;2.17;;;;;;;8.48;100.00;99900.41;4982266;28;20196;-74
2023/12/25 04:48:27;;;;;;;5.45;1.67;;;;;;;8.38;100.00;99899.78;4966547;28;20388;-74
2023/12/25 04:50:56;;;;;;;11.30;1.45;;;;;;;8.37;100.00;99896.28;4981491;28;20069;-74
2023/12/25 04:53:22;;;;;;;6.63;1.17;;;;;;;8.38;100.00;99899.78;4994147;28;20041;-74
2023/12/25 04:55:48;;;;;;;12.13;2.30;;;;;;;8.35;100.00;99892.97;4982162;28;20088;-76
2023/12/25 04:58:18;;;;;;;3.95;0.80;;;;;;;8.39;100.00;99893.47;4982313;28;20049;-74
2023/12/25 05:00:44;;;;;;;2.22;0.73;;;;;;;8.38;100.00;99889.91;4995624;28;20096;-74
2023/12/25 05:03:10;;;;;;;1.60;0.90;;;;;;;8.35;100.00;99884.91;4982058;28;20033;-75
2023/12/25 05:05:36;;;;;;;1.52;0.68;;;;;;;8.25;100.00;99892.38;4998066;28;20076;-74
2023/12/25 05:08:01;;;;;;;7.50;1.58;;;;;;;8.19;100.00;99886.94;5015052;28;20080;-74
2023/12/25 05:10:27;;;;;;;6.93;1.48;;;;;;;8.17;100.00;99895.13;4998413;28;20038;-74
2023/12/25 05:12:57;;;;;;;5.63;1.45;;;;;;;8.17;100.00;99886.28;4997827;28;20084;-74
2023/12/25 05:15:23;;;;;;;10.38;1.70;;;;;;;8.15;100.00;99886.47;4982112;28;20044;-74
2023/12/25 05:17:49;;;;;;;6.40;1.88;;;;;;;8.23;100.00;99888.22;4998034;28;20129;-74
2023/12/25 05:20:22;;;;;;;13.82;2.47;;;;;;;8.33;100.00;99884.25;4981638;28;20050;-74
2023/12/25 05:22:52;;;;;;;4.53;1.15;;;;;;;8.45;100.00;99894.59;4997888;28;20034;-75
2023/12/25 05:25:18;;;;;;;2.70;0.77;;;;;;;8.53;100.00;99894.50;4982024;28;20038;-75
2023/12/25 05:27:44;;;;;;;8.30;1.45;;;;;;;8.52;100.00;99882.97;5014021;28;20041;-75
2023/12/25 05:30:11;;;;;;;5.05;1.23;;;;;;;8.47;100.00;99874.63;4997385;28;20048;-75
2023/12/25 05:32:37;;;;;;;2.72;1.05;;;;;;;8.41;100.00;99863.81;4981249;28;20044;-74
2023/12/25 05:35:06;;;;;;;5.03;0.85;;;;;;;8.38;100.00;99860.44;4981487;28;20034;-74
2023/12/25 05:37:32;;;;;;;2.15;0.75;;;;;;;8.32;100.00;99863.03;4997634;28;20065;-74
2023/12/25 05:39:58;;;;;;;2.45;1.23;;;;;;;8.23;100.00;99862.28;5014112;28;20064;-73
2023/12/25 05:42:26;;;;;;;2.63;0.90;;;;;;;8.14;100.00;99847.31;4981148;28;20562;-73
2023/12/25 05:44:52;;;;;;;2.65;1.02;;;;;;;8.07;100.00;99847.22;4981479;28;20030;-73
2023/12/25 05:47:18;;;;;;;6.50;1.38;;;;;;;8.04;100.00;99852.09;4981172;28;20037;-75
2023/12/25 05:49:46;;;;;;;4.80;1.13;;;;;;;8.04;100.00;99846.72;4997559;28;20038;-73
2023/12/25 05:52:15;;;;;;;5.90;1.63;;;;;;;8.08;100.00;99858.75;4981329;28;20041;-73
2023/12/25 05:54:48;;;;;;;13.20;1.70;;;;;;;8.09;100.00;99858.56;4981172;28;20042;-74
2023/12/25 05:57:18;;;;;;;5.23;1.20;;;;;;;8.12;100.00;99854.69;5013614;28;20033;-73
2023/12/25 05:59:46;;;;;;;4.00;1.15;;;;;;;8.13;100.00;99845.66;4996705;28;20026;-73
2023/12/25 06:02:19;;;;;;;0.80;0.65;;;;;;;8.13;100.00;99840.31;4980799;28;20041;-73
2023/12/25 06:04:45;;;;;;;3.80;0.85;;;;;;;8.19;100.00;99846.78;4997560;28;20052;-73
2023/12/25 06:07:11;;;;;;;4.55;0.77;;;;;;;8.20;100.00;99859.97;4980306;28;20117;-73
2023/12/25 06:09:40;;;;;;;7.07;1.50;;;;;;;8.21;100.00;99844.75;4980713;28;20041;-74
2023/12/25 06:12:06;;;;;;;0.73;0.50;;;;;;;8.17;100.00;99857.66;4976531;28;20037;-73
2023/12/25 06:14:35;;;;;;;3.35;0.80;;;;;;;8.19;100.00;99871.69;4981475;28;20034;-73
2023/12/25 06:17:09;;;;;;;6.50;1.10;;;;;;;8.21;100.00;99864.31;4982005;28;20050;-73
2023/12/25 06:19:35;;;;;;;4.68;0.90;;;;;;;8.28;100.00;99870.63;4996490;28;20041;-73
2023/12/25 06:22:04;;;;;;;5.05;1.35;;;;;;;8.35;100.00;99866.16;4980266;28;20037;-73
2023/12/25 06:24:35;;;;;;;6.95;0.90;;;;;;;8.31;100.00;99886.31;5012069;28;20472;-73
2023/12/25 06:27:01;;;;;;;3.03;0.80;;;;;;;8.34;100.00;99861.84;4996304;28;20037;-74
2023/12/25 06:29:27;;;;;;;6.03;1.10;;;;;;;8.37;100.00;99866.00;4980228;28;20168;-74
2023/12/25 06:31:52;;;;;;;0.93;0.93;;;;;;;8.33;100.00;99853.97;4996322;28;20499;-74
2023/12/25 06:34:18;;;;;;;3.58;1.23;;;;;;;8.28;100.00;99861.72;4980593;28;20030;-73
2023/12/25 06:36:44;;;;;;;0.77;0.50;;;;;;;8.19;100.00;99865.50;4980659;28;20383;-73
2023/12/25 06:39:12;;;;;;;0.60;0.60;;;;;;;8.14;100.00;99848.13;4980403;28;20033;-73
2023/12/25 06:41:38;;;;;;;0.98;0.90;;;;;;;8.04;100.00;99838.69;4996829;28;20092;-73
2023/12/25 06:44:03;;;;;;;5.93;1.20;;;;;;;7.95;100.00;99839.81;4980381;28;20030;-74
2023/12/25 06:46:29;;;;;;;9.90;1.35;;;;;;;7.84;100.00;99843.75;4980146;28;20048;-73
2023/12/25 06:48:55;;;;;;;4.15;1.33;;;;;;;7.74;100.00;99851.19;4980556;28;20431;-73
2023/12/25 06:51:20;;;;;;;6.53;1.48;;;;;;;7.76;100.00;99852.69;4980099;28;20120;-73
2023/12/25 06:53:46;;;;;;;4.70;0.77;;;;;;;7.74;100.00;99846.66;4980192;28;20546;-73
2023/12/25 06:56:16;;;;;;;6.13;1.05;;;;;;;7.74;100.00;99841.31;4980411;28;20030;-73
2023/12/25 06:58:45;;;;;;;7.43;1.13;;;;;;;7.70;100.00;99842.69;5011731;28;20045;-74
2023/12/25 07:01:12;;;;;;;7.18;1.00;;;;;;;7.65;100.00;99824.50;4979887;28;20392;-73
2023/12/25 07:03:41;;;;;;;0.95;0.50;;;;;;;7.64;100.00;99836.19;4996331;28;20473;-73
2023/12/25 07:06:08;;;;;;;0.70;0.70;;;;;;;7.76;100.00;99858.03;4980150;28;20393;-73
2023/12/25 07:08:34;;;;;;;3.65;0.75;;;;;;;7.77;100.00;99840.94;4996760;28;20041;-73
2023/12/25 07:11:00;;;;;;;0.30;0.30;;;;;;;7.81;100.00;99847.63;4980358;28;20041;-73
2023/12/25 07:13:26;;;;;;;0.30;0.30;;;;;;;7.84;100.00;99857.13;4980067;28;20132;-73
2023/12/25 07:15:51;;;;;;;0.30;0.30;;;;;;;7.88;100.00;99856.56;4999841;28;20038;-73
2023/12/25 07:18:17;;;;;;;0.40;0.40;;;;;;;7.88;100.00;99856.56;5000367;28;20084;-73
2023/12/25 07:20:43;;;;;;;0.30;0.30;;;;;;;7.95;100.00;99847.84;4984299;28;20053;-74
2023/12/25 07:23:13;;;;;;;0.40;0.40;;;;;;;8.06;100.00;99860.78;5000269;28;20030;-73
2023/12/25 07:25:41;;;;;;;0.40;0.40;;;;;;;8.18;100.00;99863.81;4984309;28;20136;-73
2023/12/25 07:28:06;;;;;;;0.30;0.30;;;;;;;8.25;100.00;99854.88;4984305;28;20048;-73
2023/12/25 07:30:33;;;;;;;0.40;0.40;;;;;;;8.29;100.00;99855.38;4984427;28;20112;-73
2023/12/25 07:33:01;;;;;;;0.30;0.30;;;;;;;8.34;100.00;99851.13;4984780;28;20434;-73
2023/12/25 07:35:29;;;;;;;0.32;0.32;;;;;;;8.36;100.00;99854.47;5016347;28;20068;-73
2023/12/25 07:37:55;;;;;;;0.30;0.30;;;;;;;8.36;100.00;99846.44;4983970;28;20038;-73
2023/12/25 07:40:21;;;;;;;0.30;0.30;;;;;;;8.44;100.00;99842.00;4984028;28;20040;-73
2023/12/25 07:42:46;;;;;;;0.32;0.32;;;;;;;8.50;100.00;99841.28;4983691;28;20041;-73
2023/12/25 07:45:12;;;;;;;0.30;0.30;;;;;;;8.51;100.00;99833.03;4983312;28;20179;-73
2023/12/25 07:47:38;;;;;;;0.40;0.40;;;;;;;8.55;100.00;99818.28;4983707;28;20049;-73
2023/12/25 07:50:05;;;;;;;0.40;0.40;;;;;;;8.59;100.00;99816.03;4999476;28;20026;-73
2023/12/25 07:52:31;;;;;;;0.40;0.40;;;;;;;8.61;100.00;99800.63;4967724;28;20038;-74
2023/12/25 07:54:59;;;;;;;0.30;0.30;;;;;;;8.62;100.00;99796.91;4983356;28;20049;-73
2023/12/25 07:57:25;;;;;;;0.30;0.30;;;;;;;8.65;100.00;99793.84;4999670;28;20048;-73
2023/12/25 07:59:54;;;;;;;0.30;0.30;;;;;;;8.68;100.00;99800.69;4999760;28;20034;-75
2023/12/25 08:02:24;;;;;;;0.30;0.30;;;;;;;8.72;100.00;99794.78;4998106;28;20029;-74
2023/12/25 08:04:51;;;;;;;0.30;0.30;;;;;;;8.76;100.00;99798.75;4983181;28;20056;-74
2023/12/25 08:07:17;;;;;;;0.30;0.30;;;;;;;8.78;100.00;99806.59;4998252;28;20038;-74
2023/12/25 08:09:47;;;;;;;0.30;0.30;;;;;;;8.89;100.00;99802.59;4982499;28;20034;-73
2023/12/25 08:12:12;;;;;;;0.30;0.30;;;;;;;8.91;100.00;99804.06;4982590;28;20038;-73
2023/12/25 08:14:40;;;;;;;0.40;0.40;;;;;;;8.95;100.00;99804.53;4998040;28;20464;-74
2023/12/25 08:17:07;;;;;;;0.40;0.40;;;;;;;8.98;100.00;99818.41;4998669;28;20038;-74
2023/12/25 08:19:32;;;;;;;0.40;0.40;;;;;;;9.00;100.00;99835.13;4998004;28;20037;-73
2023/12/25 08:21:58;;;;;;;0.40;0.40;;;;;;;9.08;100.00;99844.91;4965511;28;20404;-74
2023/12/25 08:24:25;;;;;;;0.40;0.40;;;;;;;9.01;100.00;99847.50;4998232;28;20026;-74
2023/12/25 08:26:52;;;;;;;0.40;0.40;;;;;;;9.11;100.00;99855.25;4998881;28;20036;-73
2023/12/25 08:29:19;;;;;;;0.40;0.40;;;;;;;9.15;100.00;99855.72;5015599;28;20045;-74
2023/12/25 08:31:44;;;;;;;0.30;0.30;;;;;;;9.18;100.00;99850.81;4998506;28;20034;-75
2023/12/25 08:34:13;;;;;;;0.40;0.40;;;;;;;9.14;100.00;99843.31;4998288;28;20057;-74
2023/12/25 08:36:40;;;;;;;0.30;0.30;;;;;;;9.20;100.00;99842.56;4981768;28;20065;-74
2023/12/25 08:39:05;;;;;;;0.38;0.38;;;;;;;9.18;100.00;99829.34;4997937;28;20045;-79
2023/12/25 08:41:31;;;;;;;0.40;0.40;;;;;;;9.18;100.00;99823.13;4982010;28;20033;-75
2023/12/25 08:43:58;;;;;;;0.40;0.40;;;;;;;9.14;100.00;99809.28;4997706;28;20064;-74
2023/12/25 08:46:24;;;;;;;0.40;0.40;;;;;;;9.18;100.00;99797.19;4998355;28;20061;-73
2023/12/25 08:48:51;;;;;;;0.40;0.40;;;;;;;9.18;100.00;99793.63;4998417;28;20127;-74
2023/12/25 08:51:16;;;;;;;0.40;0.40;;;;;;;9.14;100.00;99806.59;4981622;28;20476;-74
2023/12/25 08:53:44;;;;;;;0.40;0.40;;;;;;;9.13;100.00;99806.78;4981794;28;20388;-73
2023/12/25 08:56:25;;;;;;;0.38;0.38;;;;;;;9.12;100.00;99829.28;5014841;28;20465;-73
2023/12/25 08:59:00;;;;;;;0.40;0.40;;;;;;;9.03;100.00;99812.47;4999241;28;20037;-74
2023/12/25 09:01:28;;;;;;;0.40;0.40;;;;;;;9.01;100.00;99801.94;4982159;28;20041;-74
2023/12/25 09:03:57;;;;;;;0.30;0.30;;;;;;;8.94;100.00;99792.97;5013949;28;20117;-74
2023/12/25 09:06:23;;;;;;;2.67;2.58;;;;;;;8.95;100.00;99802.69;4982609;28;20144;-74
2023/12/25 09:08:49;;;;;;;0.30;0.30;;;;;;;8.94;100.00;99795.66;5014275;28;20050;-74
2023/12/25 09:11:17;;;;;;;0.40;0.40;;;;;;;9.00;100.00;99804.81;5014301;28;20042;-74
2023/12/25 09:13:46;;;;;;;0.40;0.40;;;;;;;8.85;100.00;99806.69;4982310;28;20525;-74
2023/12/25 09:16:15;;;;;;;0.30;0.30;;;;;;;8.70;100.00;99810.22;4981886;28;20034;-73
2023/12/25 09:18:43;;;;;;;0.40;0.40;;;;;;;8.70;100.00;99812.88;4981423;28;20476;-74
2023/12/25 09:21:12;;;;;;;0.40;0.40;;;;;;;8.67;100.00;99809.75;4966612;28;20042;-73
2023/12/25 09:23:39;;;;;;;0.40;0.40;;;;;;;8.56;100.00;99813.75;4997485;28;20183;-74
2023/12/25 09:26:05;;;;;;;0.40;0.40;;;;;;;8.35;100.00;99827.84;4981876;28;20530;-73
2023/12/25 09:28:33;;;;;;;0.40;0.40;;;;;;;8.19;100.00;99833.38;4965633;28;20037;-73
2023/12/25 09:31:01;;;;;;;0.30;0.30;;;;;;;8.11;100.00;99835.13;4981298;28;20473;-73
2023/12/25 09:33:29;;;;;;;0.40;0.40;;;;;;;7.99;100.00;99828.56;4981684;28;20038;-73
2023/12/25 09:36:01;;;;;;;0.40;0.40;;;;;;;7.93;100.00;99816.72;4981373;28;20038;-73
2023/12/25 09:38:27;;;;;;;0.40;0.40;;;;;;;7.91;100.00;99813.41;4981325;28;20029;-73
2023/12/25 09:40:57;;;;;;;0.30;0.30;;;;;;;7.90;100.00;99795.66;4981525;28;20113;-73
2023/12/25 09:43:23;;;;;;;0.30;0.30;;;;;;;7.93;100.00;99805.19;4997796;28;20044;-73
2023/12/25 09:45:49;;;;;;;0.40;0.40;;;;;;;7.95;100.00;99796.97;4981609;28;20127;-73
2023/12/25 09:48:20;;;;;;;0.30;0.30;;;;;;;7.97;100.00;99821.72;4981390;28;20128;-73
2023/12/25 09:50:46;;;;;;;0.40;0.40;;;;;;;7.99;100.00;99812.50;4965698;28;20435;-73
2023/12/25 09:53:11;;;;;;;0.40;0.40;;;;;;;8.00;100.00;99822.19;5013473;28;20124;-74
2023/12/25 09:55:40;;;;;;;0.40;0.40;;;;;;;8.02;100.00;99811.28;4980299;28;20129;-73
2023/12/25 09:58:07;;;;;;;0.40;0.40;;;;;;;8.06;100.00;99808.06;4980919;28;20506;-73
2023/12/25 10:00:34;;;;;;;0.30;0.30;;;;;;;8.09;100.00;99817.56;4967172;28;20042;-73
2023/12/25 10:03:00;;;;;;;0.30;0.30;;;;;;;8.14;100.00;99820.53;4980827;28;20053;-74
2023/12/25 10:05:26;;;;;;;0.40;0.40;;;;;;;8.17;100.00;99814.81;4981166;28;20034;-73
2023/12/25 10:07:55;;;;;;;0.45;0.45;;;;;;;8.27;100.00;99811.88;4996261;28;20030;-74
2023/12/25 10:10:32;;;;;;;0.30;0.30;;;;;;;8.25;100.00;99801.31;4965115;28;20486;-74
2023/12/25 10:13:04;;;;;;;0.40;0.40;;;;;;;8.09;100.00;99791.63;4980419;28;20041;-73
2023/12/25 10:15:30;;;;;;;0.40;0.40;;;;;;;8.14;100.00;99789.22;5013025;28;20396;-74
2023/12/25 10:18:08;;;;;;;0.40;0.40;;;;;;;8.11;100.00;99794.13;4980477;28;20050;-74
2023/12/25 10:20:34;;;;;;;0.40;0.40;;;;;;;8.11;100.00;99788.78;4996421;28;20030;-74
2023/12/25 10:23:00;;;;;;;0.40;0.40;;;;;;;8.18;100.00;99792.38;4996717;28;20170;-73
2023/12/25 10:25:33;;;;;;;0.40;0.40;;;;;;;8.23;100.00;99795.34;4996859;28;20038;-74
2023/12/25 10:28:11;;;;;;;0.40;0.40;;;;;;;8.32;100.00;99804.94;5012872;28;20038;-74
2023/12/25 10:30:41;;;;;;;0.40;0.40;;;;;;;8.40;100.00;99809.41;4996919;28;20056;-74
2023/12/25 10:33:14;;;;;;;0.30;0.30;;;;;;;8.47;100.00;99807.66;4997363;28;20041;-74
2023/12/25 10:35:41;;;;;;;0.40;0.40;;;;;;;8.50;100.00;99815.31;4981733;28;20049;-74
2023/12/25 10:38:07;;;;;;;0.40;0.40;;;;;;;8.54;100.00;99805.88;4996327;28;20495;-75
2023/12/25 10:40:33;;;;;;;0.30;0.30;;;;;;;8.59;100.00;99816.88;4980148;28;20033;-76
2023/12/25 10:43:03;;;;;;;0.40;0.40;;;;;;;8.68;100.00;99812.25;4980157;28;20042;-75
2023/12/25 10:45:32;;;;;;;0.40;0.40;;;;;;;8.70;100.00;99795.97;4996681;28;20052;-75
2023/12/25 10:48:03;;;;;;;0.40;0.40;;;;;;;8.69;100.00;99789.78;4980505;28;20037;-75
2023/12/25 10:50:36;;;;;;;0.40;0.40;;;;;;;8.73;100.00;99793.78;4980106;28;20531;-75
2023/12/25 10:53:05;;;;;;;0.40;0.40;;;;;;;8.79;100.00;99798.38;4981352;28;20488;-75
2023/12/25 10:55:40;;;;;;;0.40;0.40;;;;;;;8.79;100.00;99817.13;4965369;28;20034;-75
2023/12/25 10:58:08;;;;;;;0.40;0.40;;;;;;;8.85;100.00;99822.78;4980440;28;20038;-75
2023/12/25 11:00:46;;;;;;;0.40;0.40;;;;;;;8.91;100.00;99811.28;5012556;28;20492;-76
2023/12/25 11:03:15;;;;;;;0.50;0.50;;;;;;;9.02;100.00;99808.09;4995999;28;20041;-75
2023/12/25 11:05:44;;;;;;;0.40;0.40;;;;;;;9.02;100.00;99811.66;4996333;28;20042;-75
2023/12/25 11:08:17;;;;;;;0.40;0.40;;;;;;;9.10;100.00;99815.22;4996492;28;20050;-75
2023/12/25 11:10:51;;;;;;;0.40;0.40;;;;;;;9.17;100.00;99816.94;5014656;28;20038;-75
2023/12/25 11:13:17;;;;;;;0.40;0.40;;;;;;;9.21;100.00;99820.94;4997934;28;20038;-75
2023/12/25 11:15:46;;;;;;;0.40;0.40;;;;;;;9.22;100.00;99822.56;4980412;28;20408;-75
2023/12/25 11:18:15;;;;;;;0.40;0.40;;;;;;;9.22;100.00;99817.22;4996304;28;20034;-75
2023/12/25 11:21:01;;;;;;;0.40;0.40;;;;;;;9.29;100.00;99824.50;4980310;28;20046;-75
2023/12/25 11:23:30;;;;;;;0.40;0.40;;;;;;;9.29;100.00;99830.72;4980010;28;20040;-75
2023/12/25 11:25:59;;;;;;;0.47;0.47;;;;;;;9.37;100.00;99835.13;4979743;28;20069;-74
2023/12/25 11:28:32;;;;;;;0.40;0.40;;;;;;;9.33;100.00;99825.78;4995878;28;20109;-75
2023/12/25 11:30:59;;;;;;;0.40;0.40;;;;;;;9.43;100.00;99820.94;4995218;28;20125;-76
2023/12/25 11:33:29;;;;;;;0.40;0.40;;;;;;;9.45;100.00;99819.72;4979780;28;20088;-75
2023/12/25 11:36:00;;;;;;;0.40;0.40;;;;;;;9.41;100.00;99812.25;4996449;28;20551;-75
2023/12/25 11:38:27;;;;;;;0.40;0.40;;;;;;;9.41;100.00;99812.25;4996476;28;20038;-75